Share

Le Raizet Airport, Guadeloupe

Le Raizet (TFFR) Elev 26 ft | 16.27 °N, 61.53 °W | Change Station

Current weather conditions updated 5 minutes ago

Mostly Cloudy
Mostly Cloudy
75 °F
Feels Like 75 °F
N
5
Wind Variable Wind from East
Sunrise 5:47 AM
Sunset 6:22 PM
Moon Waning Gibbous

Today is forecast to be Cooler than yesterday. Chance of showers.

Pressure 29.98 in
Visibility 6.2 miles
Clouds Few 2600 ft
Mostly Cloudy 6600 ft
Dew Point 70 °F
Humidity 83%
Rainfall 0.00 in
Snow Depth Not available.
UV 0 out of 16
Pollen Not available.
Air Quality Not available.
Flu Activity Not available.
METAR TFFR 210730Z AUTO 08004KT 9999 FEW026 BKN066 24/21 Q1015

More Conditions Fewer Conditions

Pressure 29.98 in
Visibility 6.2 miles
Clouds Few 2600 ft
Mostly Cloudy 6600 ft
Dew Point 70 °F
Humidity 83%
Rainfall 0.00 in
Snow Depth Not available.
UV 0 out of 16
Pollen Not available.
Air Quality Not available.
Flu Activity Not available.
METAR TFFR 210730Z AUTO 08004KT 9999 FEW026 BKN066 24/21 Q1015

More Conditions Fewer Conditions

10-Day Weather Forecast

Almanac

Astronomy

Apr. 21, 2014 Rise Set
Actual Time 5:47 AM AST 6:22 PM AST
Civil Twilight 5:25 AM AST 6:44 PM AST
Nautical Twilight 4:59 AM AST 7:10 PM AST
Astronomical Twilight 4:32 AM AST 7:36 PM AST
Moon No Moon Rise 11:20 AM AST
Length of Visible Light 13h 19m
Length of Day
12h 35m
Tomorrow will be 0m 50s longer.
Waning Gibbous, 62% of the Moon is Illuminated
Today
Waning Gibbous
Apr 22
Last Quarter
Apr 29
New
May 6
First Quarter
May 14
Full

Yesterday's Extremes

Country Highs Country Lows

Community

  • Snowy Robin
    Snowy Robin
  • Sun Pillar and Geese
    Sun Pillar and Geese
  • Showers on the Way
    Showers on the Way
  • Easter Morning Fog
    Easter Morning Fog
  • Easter Dance
    Easter Dance

WunderPhotos

Upload Photos

1,703,572 photos uploaded!

WunderBlogs® & News

Nearby

Snow Depth

Not available.

Coastal Water Temperatures

Place Temperature
No Stations Reporting

Earthquake Activity

City Distance Mag. Time & Date
No recent earthquake activity has been reported nearby.
Minimum magnitude displayed is 2.5.

Nearby Weather Stations

Station Location Temp. Heat Index Dew Point Humidity Wind Precip. Elev Updated Type
FWI, Sainte Rose 74.7 °F 72 °F 74 °F 99% East  at  2.2 mph 0.00 in / hr 164 ft 3:35 AM AST Rapid Fire

Show More Stations Show Fewer Stations

What do you think?

We're not finished. Please let us know what you like, what you don't like, and what you are still missing.